Disclaimer

Please do not use the information listed here in-flight or in-navigation, as they are not provided to us by the airports but are provided by volunteers, so they might be outdated.

Search


Regions


Airport information page

Radio informations:
Tower (TWR) - 118.1 MHz
Ground (GND) - 121.9 MHz
Clearance delivery - 121.7 MHz
Automatic Terminal Information Service (ATIS) - 123.125 MHz
TOULOUSE APP - 125.175 MHz
TOULOUSE INFO - 121.25 MHz

Airport informations:
Latitude: 43° 37' 44.67" N
Longitude: 001° 21' 49.75" E
Elevation: 499 feet - 152 meters
Operating hours: 24 hour operations
Operating agency: Civil government, landing fees and diplomatic clearance may be required
Timezone: UTC+1(+2DT) - Last Sunday in March to last Sunday in October
Fuel: Jet A1, without icing nhibitor.

100/130 MIL Spec, low lead, aviation gasoline (BLUE)

Runway information:
14R/32L - 11483 x 148 feet< - >3500 x 45 meters
14L/32R - 9843 x 148 feet< - >3000 x 45 meters

Recent METARs:
LFBO 211830Z AUTO 12005KT CAVOK 09/06 Q1012 NOSIG
LFBO 211900Z AUTO 13005KT CAVOK 08/06 Q1013 NOSIG
LFBO 211930Z AUTO 14006KT CAVOK 08/06 Q1013 NOSIG

Airport on the map: